WetterOnline ( https://www.wetteronline.de )

Wetter aktuell Bremerhaven

Aktuelles Wetter: Bremerhaven (11m)

6-stündlich | Neueste Meldungen
Ortszeit Temperatur Wetter
Fr, 19.04. 8:00 7.6° C Sprühregen
Fr, 19.04. 2:00 6.8° C leichter Regen
Do, 18.04. 20:00 7.9° C bewölkt
Do, 18.04. 14:00 9.3° C bewölkt
Do, 18.04. 8:00 7.3° C leicht bewölkt
Do, 18.04. 2:00 7.3° C leicht bewölkt
Mi, 17.04. 20:00 8.1° C bewölkt
Mi, 17.04. 14:00 7.4° C bedeckt
Ortszeit Temperatur Wetter
Fr, 19.04. 11:10 9.4° C bedeckt
Fr, 19.04. 11:00 8.9° C bedeckt
Fr, 19.04. 10:50 8.9° C bedeckt
Fr, 19.04. 10:40 8.8° C bedeckt
Fr, 19.04. 10:30 9.1° C bewölkt
Fr, 19.04. 10:20 9.1° C bewölkt
Fr, 19.04. 10:00 8.3° C leichter Regen
Fr, 19.04. 9:30 8.9° C bedeckt
Fr, 19.04. 9:00 8.8° C Sprühregen
Fr, 19.04. 8:30 8.2° C leichter Regen
Ortszeit Relative Feuchte Sichtweite
Fr, 19.04. 8:00 96% 26 km
Fr, 19.04. 2:00 89% 11 km
Do, 18.04. 20:00 73% 30 km
Do, 18.04. 14:00 69% 35 km
Do, 18.04. 8:00 83% 45 km
Do, 18.04. 2:00 79% 40 km
Mi, 17.04. 20:00 71% 35 km
Mi, 17.04. 14:00 81% 50 km
Ortszeit Relative Feuchte Sichtweite
Fr, 19.04. 11:10 78% -
Fr, 19.04. 11:00 79% 30 km
Fr, 19.04. 10:50 79% -
Fr, 19.04. 10:40 79% -
Fr, 19.04. 10:30 79% 40 km
Fr, 19.04. 10:20 79% -
Fr, 19.04. 10:00 90% 23 km
Fr, 19.04. 9:30 78% 30 km
Fr, 19.04. 9:00 79% 23 km
Fr, 19.04. 8:30 94% 15 km
Ortszeit Niederschlagsmenge Niederschlagsart
Fr, 19.04. 8:00 4 l/m2 in 12 Std. Regen
Fr, 19.04. 2:00 0.8 l/m2 in 6 Std. Regen
Do, 18.04. 20:00 0.2 l/m2 in 12 Std. Regen
Do, 18.04. 14:00 0.2 l/m2 in 6 Std. Regen
Do, 18.04. 8:00 0.9 l/m2 in 12 Std. -
Do, 18.04. 2:00 0.9 l/m2 in 6 Std. Regen
Mi, 17.04. 20:00 13 l/m2 in 12 Std. Regen
Mi, 17.04. 14:00 13 l/m2 in 6 Std. Regen
Ortszeit Niederschlagsmenge Niederschlagsart
Fr, 19.04. 11:10 keine Meldung -
Fr, 19.04. 11:00 <0.05 l/m2 in 1 Std. Regen
Fr, 19.04. 10:50 keine Meldung -
Fr, 19.04. 10:40 keine Meldung -
Fr, 19.04. 10:30 <0.05 l/m2 in 30 Min Schneeregen
Fr, 19.04. 10:20 keine Meldung -
Fr, 19.04. 10:00 0.6 l/m2 in 1 Std. Regen
Fr, 19.04. 9:30 <0.05 l/m2 in 30 Min Schnee
Fr, 19.04. 9:00 <0.05 l/m2 in 1 Std. Regen
Fr, 19.04. 8:30 <0.05 l/m2 in 30 Min -
Ortszeit Stärke Spitze Richtung
km/h Bft. km/h Grad Sektor
Fr, 19.04. 8:00 18 3 50 250° W
Fr, 19.04. 2:00 33 5 44 230° SW
Do, 18.04. 20:00 22 4 50 280° W
Do, 18.04. 14:00 33 5 44 310° NW
Do, 18.04. 8:00 9 2 17 350° N
Do, 18.04. 2:00 7 2 29 340° N
Mi, 17.04. 20:00 20 4 31 360° N
Mi, 17.04. 14:00 7 2 29 180° S
Ortszeit Stärke Spitze Richtung
km/h Bft. km/h Grad Sektor
Fr, 19.04. 11:10 47 6 - 300° NW
Fr, 19.04. 11:00 39 6 65 290° W
Fr, 19.04. 10:50 39 6 - 290° W
Fr, 19.04. 10:40 39 6 - 280° W
Fr, 19.04. 10:30 39 6 46 290° W
Fr, 19.04. 10:20 39 6 - 290° W
Fr, 19.04. 10:00 40 6 50 300° NW
Fr, 19.04. 9:30 30 5 46 280° W
Fr, 19.04. 9:00 33 5 46 290° W
Fr, 19.04. 8:30 25 4 32 260° W
Ortszeit Untergrenze Bedeckung Gattung
total tief tief mittel hoch
Fr, 19.04. 8:00 210 m 8/8 8/8 - - -
Fr, 19.04. 2:00 630 m 7/8 7/8 - - -
Do, 18.04. 20:00 810 m 8/8 7/8 - - -
Do, 18.04. 14:00 1080 m 7/8 7/8 - - -
Do, 18.04. 8:00 2100 m 4/8 4/8 - - -
Do, 18.04. 2:00 1200 m 4/8 3/8 - - -
Mi, 17.04. 20:00 1380 m 8/8 7/8 - - -
Mi, 17.04. 14:00 540 m 8/8 8/8 - - -
Ortszeit Bedeckungsgrad in Achtel und Wolkenuntergrenze
Fr, 19.04. 11:10 8
Fr, 19.04. 11:00 2(690m) 8(2100m) 8(3300m)
Fr, 19.04. 10:50 2(690m) 8(2100m) 8(3300m)
Fr, 19.04. 10:40 8
Fr, 19.04. 10:30 4(780m) 8(4800m) 8(5700m)
Fr, 19.04. 10:20 4(780m) 8(4800m) 8(5700m)
Fr, 19.04. 10:00 2(510m) 6(1320m) 8(2700m)
Fr, 19.04. 9:30 1(750m) 5(1020m) 8(1260m)
Fr, 19.04. 9:00 2(690m) 7(1050m) 8(1260m)
Fr, 19.04. 8:30 3(270m) 7(990m) 8(1260m)
Ortszeit Luftdruck NN (hPa) Tendenz (hPa in 3 Std.)
Fr, 19.04. 8:00 1003 - 2,9
Fr, 19.04. 2:00 1011 - 3,3
Do, 18.04. 20:00 1016 - 0,5
Do, 18.04. 14:00 1017 + 0,3
Do, 18.04. 8:00 1016 + 1,3
Do, 18.04. 2:00 1014 + 1,3
Mi, 17.04. 20:00 1011 + 1,0
Mi, 17.04. 14:00 1010 + 0,1
Ortszeit Luftdruck NN (hPa) Tendenz (hPa in 3 Std.)
Fr, 19.04. 11:10 1002 keine Meldung
Fr, 19.04. 11:00 1002 - 0,9
Fr, 19.04. 10:50 1002 keine Meldung
Fr, 19.04. 10:40 1003 keine Meldung
Fr, 19.04. 10:30 1003 - 1,0
Fr, 19.04. 10:20 1003 keine Meldung
Fr, 19.04. 10:00 1003 - 1,3
Fr, 19.04. 9:30 1003 - 1,2
Fr, 19.04. 9:00 1003 - 1,5
Fr, 19.04. 8:30 1003 - 2,2
Ortszeit Schneehöhe (cm)
Fr, 19.04. 8:00 0
Fr, 19.04. 2:00 0
Do, 18.04. 20:00 0
Do, 18.04. 14:00 0
Do, 18.04. 8:00 0
Do, 18.04. 2:00 0
Mi, 17.04. 20:00 0
Mi, 17.04. 14:00 0
Ortszeit Schneehöhe (cm)
Fr, 19.04. 11:10 -
Fr, 19.04. 11:00 0
Fr, 19.04. 10:50 0
Fr, 19.04. 10:40 -
Fr, 19.04. 10:30 0
Fr, 19.04. 10:20 0
Fr, 19.04. 10:00 0
Fr, 19.04. 9:30 0
Fr, 19.04. 9:00 0
Fr, 19.04. 8:30 0
Link zu dieser Seite / Seite empfehlen

Das Wetter in ...